This is the latest recevied weather packets stored in our database for station/object KD7KCN-5. If no packets are shown the sender has not sent any weather packets the latest 10 day(s).
| Time | Temp. | Humidity | Pressure | Rain* | Wind** | Luminosity | Snow |
|---|---|---|---|---|---|---|---|
| 1777867313 | 15° C | 42% | 1010.2 hPa | 0 mm | - | 0 W/m² | - |
| 1777866713 | 15.56° C | 38% | 1010.1 hPa | 0 mm | - | 0 W/m² | - |
| 1777866113 | 15° C | 41% | 1009.9 hPa | 0 mm | - | 0 W/m² | - |
| 1777865513 | 14.44° C | 43% | 1009.9 hPa | 0 mm | - | 0 W/m² | - |
| 1777864914 | 13.89° C | 47% | 1009.9 hPa | 0 mm | - | 0 W/m² | - |
| 1777863113 | 13.89° C | 47% | 1009.9 hPa | 0 mm | - | 0 W/m² | - |
| 1777862513 | 13.89° C | 48% | 1009.8 hPa | 0 mm | - | 0 W/m² | - |
| 1777861913 | 13.89° C | 49% | 1009.4 hPa | 0 mm | - | 0 W/m² | - |
| 1777861313 | 13.89° C | 55% | 1010.4 hPa | 0 mm | - | 0 W/m² | - |
| 1777860713 | 15° C | 51% | 1010.9 hPa | 0 mm | - | 0 W/m² | - |
| 1777860113 | 16.11° C | 41% | 1010.8 hPa | 0 mm | - | 7 W/m² | - |
| 1777859513 | 17.22° C | 34% | 1010.6 hPa | 0 mm | - | 19 W/m² | - |
| 1777858913 | 17.22° C | 34% | 1010 hPa | 0 mm | - | 14 W/m² | - |
| 1777858313 | 17.78° C | 31% | 1010.1 hPa | 0 mm | - | 25 W/m² | - |
| 1777857713 | 18.33° C | 30% | 1010 hPa | 0 mm | - | 28 W/m² | - |
| 1777857113 | 18.89° C | 27% | 1009.6 hPa | 0 mm | - | 26 W/m² | - |
| 1777856513 | 19.44° C | 26% | 1009 hPa | 0 mm | - | 30 W/m² | - |
| 1777855913 | 19.44° C | 25% | 1009 hPa | 0 mm | - | 39 W/m² | - |
| 1777855313 | 20.56° C | 24% | 1008.7 hPa | 0 mm | - | 39 W/m² | - |
| 1777854713 | 20.56° C | 22% | 1008.7 hPa | 0 mm | - | 49 W/m² | - |
| 1777854113 | 21.11° C | 22% | 1008.7 hPa | 0 mm | - | 174 W/m² | - |
| 1777853515 | 21.67° C | 21% | 1008.6 hPa | 0 mm | - | 137 W/m² | - |
| 1777852913 | 21.67° C | 21% | 1008.7 hPa | 0 mm | - | 381 W/m² | - |
| 1777851713 | 23.33° C | 20% | 1008.9 hPa | 0 mm | - | 422 W/m² | - |
| 1777851113 | 22.78° C | 20% | 1009 hPa | 0 mm | - | 473 W/m² | - |
* Rain latest hour (hover to see other rain measurements)
** Current wind speed in m/s (hover to see current wind gust speed)